Time;durP1;ratioP1;P1;durP2;ratioP2;P2;SDS_P1;SDS_P2;PMS_P1;PMS_P2;Temp;Humidity;BMP_temperature;BMP_pressure;BME280_temperature;BME280_humidity;BME280_pressure;Samples;Min_cycle;Max_cycle;Signal;HPM_P1;HPM_P2
2022/03/18 00:02:16;;;;;;;11.40;5.90;;;;;;;16.28;39.74;97457.56;5115042;28;20411;-26
2022/03/18 00:04:42;;;;;;;9.50;5.72;;;;;;;16.24;40.03;97463.13;5115107;28;20073;-25
2022/03/18 00:07:08;;;;;;;11.55;5.70;;;;;;;16.27;39.78;97462.25;5114849;28;20410;-25
2022/03/18 00:09:34;;;;;;;8.55;5.75;;;;;;;16.30;39.66;97466.88;5115095;28;20028;-25
2022/03/18 00:11:59;;;;;;;11.93;6.97;;;;;;;16.36;39.62;97478.03;5113554;28;20776;-25
2022/03/18 00:14:25;;;;;;;10.45;5.75;;;;;;;16.31;39.64;97473.09;5114896;28;20033;-25
2022/03/18 00:16:51;;;;;;;10.27;5.32;;;;;;;16.27;39.78;97483.41;5114783;28;20024;-25
2022/03/18 00:19:17;;;;;;;10.93;6.22;;;;;;;16.27;39.72;97481.41;5114525;28;20046;-25
2022/03/18 00:21:43;;;;;;;11.43;5.97;;;;;;;16.16;39.68;97479.03;5114685;28;20073;-25
2022/03/18 00:24:08;;;;;;;8.75;5.85;;;;;;;16.16;39.90;97479.03;5114693;28;20023;-25
2022/03/18 00:26:34;;;;;;;11.75;5.82;;;;;;;16.11;39.89;97490.50;5114708;28;20030;-25
2022/03/18 00:28:59;;;;;;;10.00;6.13;;;;;;;16.13;39.81;97488.09;5114551;28;20051;-25
2022/03/18 00:31:25;;;;;;;11.65;5.90;;;;;;;16.21;39.63;97483.16;5115041;28;20449;-25
2022/03/18 00:33:51;;;;;;;10.80;6.22;;;;;;;16.24;39.58;97476.06;5116489;27;20015;-25
2022/03/18 00:36:16;;;;;;;8.50;5.97;;;;;;;16.18;39.78;97481.31;5116392;28;20038;-25
2022/03/18 00:38:42;;;;;;;10.10;6.20;;;;;;;16.22;39.62;97483.94;5116369;28;20027;-25
2022/03/18 00:41:08;;;;;;;9.65;6.28;;;;;;;16.22;39.52;97473.75;5116367;28;20019;-25
2022/03/18 00:43:33;;;;;;;8.65;6.50;;;;;;;16.15;39.50;97477.47;5116314;28;20043;-25
2022/03/18 00:45:59;;;;;;;11.10;6.63;;;;;;;16.16;39.74;97473.53;5116377;28;20084;-25
2022/03/18 00:53:53;;;;;;;11.35;6.55;;;;;;;16.19;39.43;97466.44;5115965;28;20393;-25
2022/03/18 00:56:19;;;;;;;9.25;6.15;;;;;;;16.10;39.58;97469.03;5116118;28;20084;-25
2022/03/18 00:58:45;;;;;;;10.07;6.60;;;;;;;16.15;39.44;97466.53;5116441;27;20103;-25
2022/03/18 01:01:11;;;;;;;9.50;6.22;;;;;;;16.05;39.81;97473.09;5136549;27;20110;-26
2022/03/18 01:03:36;;;;;;;9.98;6.65;;;;;;;16.09;39.62;97471.00;5136667;27;20054;-25
2022/03/18 01:06:02;;;;;;;9.32;5.85;;;;;;;16.12;39.57;97463.91;5136251;27;20026;-25
2022/03/18 01:08:28;;;;;;;10.68;6.05;;;;;;;16.08;39.43;97466.75;5136288;27;20043;-25
2022/03/18 01:10:53;;;;;;;10.48;6.15;;;;;;;16.14;39.31;97465.00;5136568;27;20027;-25
2022/03/18 01:13:21;;;;;;;10.45;6.13;;;;;;;16.11;39.39;97474.09;5136136;27;20047;-25
2022/03/18 01:15:46;;;;;;;12.43;6.50;;;;;;;16.09;39.43;97471.00;5136553;27;20026;-25
2022/03/18 01:18:12;;;;;;;8.45;6.15;;;;;;;16.12;39.31;97467.41;5136154;27;20464;-25
2022/03/18 01:20:38;;;;;;;8.32;6.07;;;;;;;16.09;39.17;97476.47;5136244;27;20030;-25
2022/03/18 01:23:06;;;;;;;11.55;6.32;;;;;;;16.13;39.33;97468.94;5136111;27;20027;-25
2022/03/18 01:25:35;;;;;;;9.73;5.93;;;;;;;16.10;39.21;97469.03;5136042;27;20027;-25
2022/03/18 01:28:01;;;;;;;12.07;6.38;;;;;;;16.06;39.22;97466.44;5135992;27;20471;-25
2022/03/18 01:30:29;;;;;;;7.05;5.68;;;;;;;16.09;39.36;97464.78;5117514;27;20487;-25
2022/03/18 01:32:55;;;;;;;11.40;6.40;;;;;;;16.07;39.27;97454.25;5135895;27;20019;-25
2022/03/18 01:35:20;;;;;;;10.82;6.10;;;;;;;16.03;39.34;97464.56;5135846;27;20475;-25
2022/03/18 01:37:46;;;;;;;9.48;5.75;;;;;;;15.99;39.44;97458.41;5135824;27;20019;-25
2022/03/18 01:40:12;;;;;;;9.05;6.10;;;;;;;16.02;39.36;97452.09;5135710;27;20503;-25
2022/03/18 01:42:37;;;;;;;11.43;6.03;;;;;;;16.06;39.01;97458.22;5135856;27;20030;-25
2022/03/18 01:45:03;;;;;;;9.45;6.10;;;;;;;15.97;39.37;97458.09;5117126;27;20083;-25
2022/03/18 01:47:29;;;;;;;9.63;6.03;;;;;;;15.99;39.34;97452.19;5135728;27;20098;-25
2022/03/18 01:49:58;;;;;;;7.82;6.00;;;;;;;15.93;39.23;97464.88;5135543;27;20389;-25
2022/03/18 01:52:24;;;;;;;9.73;5.55;;;;;;;15.99;39.07;97447.47;5135431;27;20101;-25
2022/03/18 01:54:51;;;;;;;9.18;5.70;;;;;;;16.01;39.33;97456.03;5135431;27;20023;-25
2022/03/18 01:57:22;;;;;;;10.50;6.43;;;;;;;16.03;38.95;97452.84;5135730;27;20020;-25
2022/03/18 01:59:49;;;;;;;10.77;6.35;;;;;;;15.93;39.28;97449.25;5135093;27;20477;-25
2022/03/18 02:02:15;;;;;;;11.65;6.47;;;;;;;15.93;38.90;97448.47;5135518;27;20023;-25
2022/03/18 02:04:42;;;;;;;12.77;6.75;;;;;;;15.99;38.89;97450.22;5134485;27;20471;-25
2022/03/18 02:07:08;;;;;;;9.60;6.20;;;;;;;15.95;39.08;97449.53;5135129;27;20098;-26
2022/03/18 02:09:36;;;;;;;9.27;5.97;;;;;;;15.97;38.84;97449.88;5135556;27;20019;-25
2022/03/18 02:12:03;;;;;;;9.15;6.13;;;;;;;15.93;38.83;97448.47;5135014;27;20045;-25
2022/03/18 02:14:43;;;;;;;7.68;5.75;;;;;;;15.97;38.98;97449.13;5135029;27;20103;-25
2022/03/18 02:17:13;;;;;;;8.10;6.38;;;;;;;15.92;39.14;97450.44;5135024;27;20054;-25
2022/03/18 02:19:40;;;;;;;8.90;6.18;;;;;;;15.96;38.91;97445.59;5135183;27;20019;-25
2022/03/18 02:22:21;;;;;;;11.65;6.40;;;;;;;15.93;38.82;97443.00;5134838;27;20030;-25
2022/03/18 02:24:48;;;;;;;11.93;6.22;;;;;;;15.67;39.49;97453.13;5134818;27;20019;-25
2022/03/18 02:27:14;;;;;;;9.15;5.70;;;;;;;15.87;39.15;97437.28;5134806;27;20375;-25
2022/03/18 02:29:41;;;;;;;8.25;5.90;;;;;;;15.89;39.30;97445.06;5134856;27;20023;-25
2022/03/18 02:32:08;;;;;;;9.40;6.65;;;;;;;15.53;39.18;97442.59;5134870;27;20034;-25
2022/03/18 02:34:35;;;;;;;9.45;6.10;;;;;;;15.79;39.01;97450.44;5134641;27;20106;-25
2022/03/18 02:37:01;;;;;;;8.93;6.78;;;;;;;15.84;39.34;97449.09;5134752;27;20031;-25
2022/03/18 02:39:27;;;;;;;10.45;6.22;;;;;;;15.84;39.02;97449.09;5134750;27;20117;-26
2022/03/18 02:41:53;;;;;;;8.23;6.10;;;;;;;15.88;38.83;97452.50;5134499;27;20125;-25
2022/03/18 02:44:19;;;;;;;9.85;6.55;;;;;;;15.80;39.03;97459.41;5134865;27;20025;-25
2022/03/18 02:46:44;;;;;;;9.70;5.82;;;;;;;15.86;38.88;97443.19;5134806;27;20094;-25
2022/03/18 02:49:10;;;;;;;9.85;6.90;;;;;;;15.85;38.90;97452.59;5134519;27;20551;-25
2022/03/18 02:51:38;;;;;;;8.93;6.25;;;;;;;15.83;38.74;97463.97;5134811;27;20023;-25
2022/03/18 02:54:05;;;;;;;9.63;6.40;;;;;;;15.91;38.83;97448.91;5134743;27;20102;-25
2022/03/18 02:56:31;;;;;;;11.45;6.15;;;;;;;15.83;38.90;97458.50;5134397;27;20023;-25
2022/03/18 02:58:57;;;;;;;7.88;6.28;;;;;;;15.86;39.00;97454.91;5134149;27;20103;-25
2022/03/18 03:01:22;;;;;;;10.70;6.72;;;;;;;15.89;38.71;97459.50;5134542;27;20030;-25
2022/03/18 03:03:48;;;;;;;9.70;6.05;;;;;;;15.83;38.95;97466.72;5134364;27;20019;-25
2022/03/18 03:08:57;;;;;;;8.68;6.82;;;;;;;15.79;38.81;97469.56;5134342;28;20034;-25
2022/03/18 03:11:23;;;;;;;11.60;6.97;;;;;;;15.85;38.55;97464.31;5134233;28;20019;-25
2022/03/18 03:13:51;;;;;;;9.20;5.93;;;;;;;15.71;38.96;97465.50;5134447;28;20030;-25
2022/03/18 03:16:19;;;;;;;7.63;6.28;;;;;;;15.75;38.79;97466.16;5135479;27;20047;-25
2022/03/18 03:18:46;;;;;;;8.55;6.38;;;;;;;15.83;38.58;97466.72;5138745;27;20497;-25
2022/03/18 03:21:11;;;;;;;12.02;6.38;;;;;;;15.76;39.00;97467.69;5138413;27;20023;-25
2022/03/18 03:23:37;;;;;;;9.43;6.70;;;;;;;15.78;38.74;97467.28;5138327;27;20026;-25
2022/03/18 03:26:03;;;;;;;8.63;6.30;;;;;;;15.72;38.81;97461.56;5138570;27;20027;-25
2022/03/18 03:28:29;;;;;;;9.52;6.60;;;;;;;15.79;38.69;97471.53;5119952;27;20056;-25
2022/03/18 03:30:54;;;;;;;11.18;6.80;;;;;;;15.78;38.65;97468.03;5138171;27;20011;-25
2022/03/18 03:33:20;;;;;;;11.32;6.15;;;;;;;15.79;38.67;97471.53;5138273;27;20019;-25
2022/03/18 03:35:45;;;;;;;11.77;6.40;;;;;;;15.78;38.53;97467.28;5138275;27;20379;-25
2022/03/18 03:38:15;;;;;;;11.32;6.95;;;;;;;15.76;38.61;97472.41;5138801;27;20368;-25
2022/03/18 03:40:42;;;;;;;9.95;6.65;;;;;;;15.72;38.67;97469.75;5137886;27;20051;-25
2022/03/18 03:43:08;;;;;;;9.93;7.03;;;;;;;15.75;38.64;97470.88;5138304;27;20045;-25
2022/03/18 03:45:36;;;;;;;10.25;6.85;;;;;;;15.66;38.98;97473.47;5138111;27;20023;-25
2022/03/18 03:48:01;;;;;;;9.63;6.97;;;;;;;15.68;38.75;97473.81;5138019;27;20019;-25
2022/03/18 03:50:27;;;;;;;12.50;7.57;;;;;;;15.68;38.91;97482.78;5137897;27;20030;-25
2022/03/18 03:52:53;;;;;;;11.52;6.95;;;;;;;15.76;38.52;97483.34;5137892;27;20447;-25
2022/03/18 03:55:19;;;;;;;11.27;6.43;;;;;;;15.73;38.71;97489.69;5137786;27;20376;-25
2022/03/18 03:57:45;;;;;;;12.38;6.45;;;;;;;15.69;38.72;97491.75;5137987;27;20160;-25
2022/03/18 04:00:12;;;;;;;12.02;7.03;;;;;;;15.71;38.85;97505.75;5137216;27;20420;-25
2022/03/18 04:02:37;;;;;;;10.20;6.97;;;;;;;15.73;38.89;97506.09;5137748;27;20403;-25
2022/03/18 04:05:07;;;;;;;9.23;6.30;;;;;;;15.65;38.88;97505.53;5137512;27;20027;-25
2022/03/18 04:07:41;;;;;;;9.25;6.45;;;;;;;15.71;38.37;97494.81;5137669;27;20023;-25
2022/03/18 04:10:09;;;;;;;10.82;6.88;;;;;;;15.72;38.51;97505.31;5137839;27;20055;-25
2022/03/18 04:12:35;;;;;;;9.85;6.43;;;;;;;15.74;38.60;97522.06;5137600;27;20027;-25
2022/03/18 04:15:04;;;;;;;9.48;6.70;;;;;;;15.81;38.67;97515.63;5137291;27;20047;-25
2022/03/18 04:17:41;;;;;;;9.98;6.72;;;;;;;15.74;38.75;97518.56;5137492;27;20023;-26
2022/03/18 04:20:11;;;;;;;9.25;6.10;;;;;;;15.66;38.88;97525.44;5137242;27;20027;-25
2022/03/18 04:22:38;;;;;;;10.52;6.70;;;;;;;15.64;38.95;97525.88;5137234;27;20023;-25
2022/03/18 04:25:04;;;;;;;9.82;7.13;;;;;;;15.67;38.73;97530.47;5137226;27;20023;-26
2022/03/18 04:27:30;;;;;;;9.43;6.40;;;;;;;15.77;38.50;97536.84;5136573;27;20027;-25
2022/03/18 04:29:55;;;;;;;10.82;6.80;;;;;;;15.69;38.69;97543.72;5137211;27;20034;-25
2022/03/18 04:32:21;;;;;;;9.45;6.90;;;;;;;15.66;38.76;97533.66;5137063;27;20030;-25
2022/03/18 04:34:46;;;;;;;8.20;6.53;;;;;;;15.71;38.70;97541.31;5137077;27;20023;-25
2022/03/18 04:37:12;;;;;;;11.52;6.53;;;;;;;15.69;38.59;97549.19;5137154;27;20031;-25
2022/03/18 04:39:38;;;;;;;11.15;7.22;;;;;;;15.70;38.63;97546.00;5137068;27;20110;-25
2022/03/18 04:42:03;;;;;;;10.60;6.80;;;;;;;15.68;38.86;97539.44;5136895;27;20023;-25
2022/03/18 04:44:29;;;;;;;11.00;6.80;;;;;;;15.67;38.70;97543.38;5136882;27;20084;-25
2022/03/18 04:46:55;;;;;;;10.13;6.15;;;;;;;15.67;38.77;97543.38;5136878;27;20515;-25
2022/03/18 04:49:20;;;;;;;8.82;6.65;;;;;;;15.60;38.97;97547.06;5136816;27;20494;-25
2022/03/18 04:51:46;;;;;;;12.30;7.13;;;;;;;15.45;39.37;97545.91;5136939;27;20022;-25
2022/03/18 04:54:12;;;;;;;9.43;6.43;;;;;;;15.59;38.96;97547.50;5136599;27;20378;-25
2022/03/18 04:59:22;;;;;;;9.82;7.03;;;;;;;15.64;38.58;97550.47;5136559;27;20514;-25
2022/03/18 05:01:48;;;;;;;9.00;6.45;;;;;;;15.66;38.59;97550.81;5136505;27;20031;-25
2022/03/18 05:04:14;;;;;;;11.05;7.22;;;;;;;15.58;38.76;97551.47;5136548;27;20058;-25
2022/03/18 05:06:39;;;;;;;10.80;6.47;;;;;;;15.65;38.54;97556.72;5136418;27;20023;-25
2022/03/18 05:09:06;;;;;;;9.40;6.85;;;;;;;15.67;38.86;97559.78;5136335;27;20019;-25
2022/03/18 05:11:31;;;;;;;9.02;6.53;;;;;;;15.61;38.72;97558.78;5136392;27;20015;-25
2022/03/18 05:13:58;;;;;;;10.00;6.30;;;;;;;15.51;38.71;97560.56;5136239;27;20455;-25
2022/03/18 05:16:25;;;;;;;11.65;7.32;;;;;;;15.41;39.02;97556.94;5136522;27;20019;-25
2022/03/18 05:18:51;;;;;;;9.57;7.22;;;;;;;15.59;38.91;97556.47;5136450;27;20023;-25
2022/03/18 05:21:16;;;;;;;10.63;6.85;;;;;;;15.63;38.68;97562.63;5136178;27;20032;-25
2022/03/18 05:23:42;;;;;;;9.73;6.85;;;;;;;15.55;38.93;97561.28;5136098;27;20054;-25
2022/03/18 05:26:08;;;;;;;11.13;7.32;;;;;;;15.51;38.98;97570.75;5136083;27;20114;-25
2022/03/18 05:28:33;;;;;;;9.55;7.38;;;;;;;15.43;39.04;97570.16;5135957;27;20027;-26
2022/03/18 05:30:59;;;;;;;10.20;6.93;;;;;;;15.46;38.93;97572.78;5135847;27;20026;-25
2022/03/18 05:33:25;;;;;;;11.32;6.72;;;;;;;15.52;39.01;97572.28;5135883;27;20023;-26
2022/03/18 05:35:50;;;;;;;10.05;6.53;;;;;;;15.59;38.78;97585.78;5135935;27;20035;-25
2022/03/18 05:38:16;;;;;;;10.50;8.10;;;;;;;15.63;38.83;97583.72;5135774;27;20086;-25
2022/03/18 05:40:42;;;;;;;10.48;7.93;;;;;;;15.58;38.55;97587.75;5134613;27;20048;-25
2022/03/18 05:43:08;;;;;;;11.63;7.88;;;;;;;15.50;38.76;97580.13;5135988;27;20446;-26
2022/03/18 05:45:33;;;;;;;10.43;7.20;;;;;;;15.44;38.86;97588.88;5135843;27;20024;-25
2022/03/18 05:47:59;;;;;;;10.52;7.18;;;;;;;15.51;38.94;97587.13;5135623;27;20031;-25
2022/03/18 05:50:25;;;;;;;12.20;7.82;;;;;;;15.53;38.84;97596.44;5135730;27;20053;-25
2022/03/18 05:52:50;;;;;;;11.75;7.45;;;;;;;15.55;38.64;97594.09;5135676;27;20035;-25
2022/03/18 05:55:16;;;;;;;10.05;7.35;;;;;;;15.62;38.83;97606.78;5135456;27;20053;-25
2022/03/18 05:57:42;;;;;;;10.05;6.80;;;;;;;15.59;38.75;97607.66;5116941;27;20052;-25
2022/03/18 06:00:09;;;;;;;10.02;6.88;;;;;;;15.58;38.96;97606.13;5134984;27;20046;-25
2022/03/18 06:02:34;;;;;;;10.68;7.40;;;;;;;15.60;38.62;97598.25;5135210;27;20030;-25
2022/03/18 06:05:01;;;;;;;12.27;7.38;;;;;;;15.53;38.57;97601.16;5135275;27;20023;-25
2022/03/18 06:07:27;;;;;;;12.13;7.03;;;;;;;15.49;38.81;97601.25;5135536;27;20129;-25
2022/03/18 06:12:37;;;;;;;11.25;6.95;;;;;;;15.51;38.79;97603.53;5135641;27;20048;-25
2022/03/18 06:15:03;;;;;;;9.45;7.35;;;;;;;15.46;38.84;97602.09;5132563;27;20098;-25
2022/03/18 06:17:29;;;;;;;10.27;7.13;;;;;;;15.48;38.70;97596.19;5133086;27;20462;-25
2022/03/18 06:19:55;;;;;;;10.05;7.50;;;;;;;15.44;39.08;97602.53;5133007;27;20031;-25
2022/03/18 06:22:20;;;;;;;8.80;6.72;;;;;;;15.43;38.94;97597.50;5133106;27;20019;-25
2022/03/18 06:24:46;;;;;;;11.95;7.10;;;;;;;15.40;38.94;97607.31;5133014;27;20472;-25
2022/03/18 06:27:11;;;;;;;11.15;7.47;;;;;;;15.45;38.80;97604.06;5132628;27;20019;-25
2022/03/18 06:29:39;;;;;;;11.35;7.63;;;;;;;15.52;38.86;97605.09;5133006;27;20027;-25
2022/03/18 06:32:05;;;;;;;10.90;7.53;;;;;;;15.54;38.66;97606.19;5132749;27;20031;-25
2022/03/18 06:34:31;;;;;;;15.10;8.05;;;;;;;15.55;38.73;97604.25;5132914;27;20475;-25
2022/03/18 06:37:03;;;;;;;13.75;7.53;;;;;;;15.54;38.64;97614.41;5132771;27;20031;-25
2022/03/18 06:39:29;;;;;;;13.23;7.75;;;;;;;15.56;38.73;97603.06;5132430;27;20105;-25
2022/03/18 06:41:56;;;;;;;11.93;7.50;;;;;;;15.50;38.85;97612.94;5131195;27;20098;-25
2022/03/18 06:44:22;;;;;;;10.30;7.20;;;;;;;15.52;38.90;97610.56;5132775;27;20030;-25
2022/03/18 06:46:47;;;;;;;10.85;7.38;;;;;;;15.51;38.85;97609.78;5132800;27;20035;-25
2022/03/18 06:49:13;;;;;;;11.10;7.50;;;;;;;15.49;38.87;97616.88;5132802;27;20023;-25
2022/03/18 06:51:40;;;;;;;12.05;7.18;;;;;;;15.47;38.82;97617.28;5113483;27;20027;-25
2022/03/18 06:54:05;;;;;;;11.18;7.80;;;;;;;15.52;38.67;97625.00;5132549;27;20033;-26
2022/03/18 06:56:32;;;;;;;12.07;7.90;;;;;;;15.51;38.78;97622.69;5132616;27;20019;-25
2022/03/18 06:58:58;;;;;;;14.82;8.43;;;;;;;15.49;38.51;97623.09;5113626;27;20376;-25
2022/03/18 07:01:26;;;;;;;10.27;7.32;;;;;;;15.52;38.84;97626.97;5132212;27;20047;-25
2022/03/18 07:03:51;;;;;;;12.77;8.05;;;;;;;15.56;38.61;97633.13;5132025;27;20031;-25
2022/03/18 07:06:17;;;;;;;11.10;7.50;;;;;;;15.55;38.77;97635.09;5132316;27;20360;-25
2022/03/18 07:08:43;;;;;;;11.48;7.45;;;;;;;15.51;38.87;97630.88;5132384;27;20039;-25
2022/03/18 07:11:13;;;;;;;11.13;7.95;;;;;;;15.51;39.02;97641.81;5132543;27;20027;-25
2022/03/18 07:13:43;;;;;;;12.13;9.20;;;;;;;15.55;38.77;97645.28;5132468;27;20027;-26
2022/03/18 07:18:54;;;;;;;12.25;7.95;;;;;;;15.61;38.63;97638.84;5132267;27;20131;-25
2022/03/18 07:21:19;;;;;;;11.20;7.22;;;;;;;15.53;38.79;97644.91;5132167;27;20538;-25
2022/03/18 07:23:45;;;;;;;10.07;7.80;;;;;;;15.58;38.73;97642.44;5132202;27;20106;-25
2022/03/18 07:26:10;;;;;;;11.07;7.85;;;;;;;15.41;39.02;97641.66;5132077;27;20039;-25
2022/03/18 07:28:36;;;;;;;12.32;7.70;;;;;;;15.49;38.87;97644.22;5132149;27;20464;-25
2022/03/18 07:31:01;;;;;;;10.98;7.82;;;;;;;15.45;38.73;97649.78;5132194;27;20027;-24
2022/03/18 07:33:27;;;;;;;11.30;7.93;;;;;;;15.43;39.03;97636.53;5132184;27;20042;-25
2022/03/18 07:35:53;;;;;;;14.40;9.00;;;;;;;15.46;38.83;97645.84;5132250;27;20194;-25
2022/03/18 07:38:20;;;;;;;9.70;7.47;;;;;;;15.51;38.86;97647.28;5113311;27;20027;-25
2022/03/18 07:40:46;;;;;;;10.13;7.40;;;;;;;15.52;38.85;97644.13;5132049;27;20024;-25
2022/03/18 07:43:12;;;;;;;12.63;8.38;;;;;;;15.43;39.04;97647.47;5130478;27;20083;-25
2022/03/18 07:45:37;;;;;;;9.73;7.57;;;;;;;15.42;38.94;97645.94;5122145;27;20027;-25
2022/03/18 07:48:05;;;;;;;10.68;7.95;;;;;;;15.51;38.89;97650.78;5111327;28;20031;-25
2022/03/18 07:50:32;;;;;;;10.57;7.68;;;;;;;15.52;38.79;97654.28;5111114;28;20472;-25
2022/03/18 07:53:05;;;;;;;10.70;7.80;;;;;;;15.43;38.96;97647.47;5111457;28;20433;-25
2022/03/18 07:55:33;;;;;;;12.95;7.60;;;;;;;15.46;39.01;97649.34;5092989;28;20019;-25
2022/03/18 07:57:59;;;;;;;9.82;7.40;;;;;;;15.55;38.86;97653.47;5111423;28;20073;-25
2022/03/18 08:00:26;;;;;;;14.00;8.70;;;;;;;15.49;39.00;97660.63;5111285;28;20078;-25
2022/03/18 08:02:53;;;;;;;11.35;7.97;;;;;;;15.45;38.59;97666.19;5111756;28;20036;-25
2022/03/18 08:05:20;;;;;;;11.77;8.38;;;;;;;15.52;38.88;97659.75;5115165;28;20024;-25
2022/03/18 08:07:46;;;;;;;11.48;8.52;;;;;;;15.54;38.77;97655.41;5115256;28;20031;-25
2022/03/18 08:10:13;;;;;;;11.77;7.97;;;;;;;15.61;38.53;97660.72;5115051;28;20015;-25
2022/03/18 08:12:40;;;;;;;15.77;8.02;;;;;;;15.50;38.92;97660.19;5114838;28;20055;-25
2022/03/18 08:15:11;;;;;;;12.00;7.95;;;;;;;15.44;39.03;97665.41;5114620;28;20028;-25
2022/03/18 08:17:38;;;;;;;13.32;8.63;;;;;;;15.53;38.92;97661.31;5096578;28;20055;-25
2022/03/18 08:20:08;;;;;;;11.20;7.80;;;;;;;15.58;38.94;97671.75;5114758;28;20024;-25
2022/03/18 08:22:35;;;;;;;12.43;8.82;;;;;;;15.42;38.96;97672.50;5114809;28;20023;-25
2022/03/18 08:25:01;;;;;;;17.00;8.68;;;;;;;15.33;39.10;97667.63;5114833;28;20039;-25
2022/03/18 08:27:27;;;;;;;9.50;7.63;;;;;;;15.45;39.07;97672.41;5114512;28;20425;-25
2022/03/18 08:29:57;;;;;;;9.88;7.75;;;;;;;15.57;39.02;97670.22;5114831;28;20023;-25
2022/03/18 08:32:26;;;;;;;11.85;8.07;;;;;;;14.59;40.31;97681.00;5113897;28;20034;-26
2022/03/18 08:34:51;;;;;;;15.18;9.35;;;;;;;15.03;39.22;97676.16;5120834;27;20023;-26
2022/03/18 08:37:56;;;;;;;11.27;8.48;;;;;;;15.11;39.14;97683.00;5135045;27;20521;-26
2022/03/18 08:40:04;;;;;;;14.73;8.68;;;;;;;15.18;39.21;97685.56;5134326;27;20463;-27
2022/03/18 08:42:30;;;;;;;12.50;7.88;;;;;;;15.24;38.94;97681.13;5133158;27;20545;-26
2022/03/18 08:44:55;;;;;;;13.40;8.73;;;;;;;15.27;38.91;97677.53;5134861;27;20027;-27
2022/03/18 08:47:23;;;;;;;14.02;8.70;;;;;;;15.20;38.98;97688.66;5134791;27;20495;-28
2022/03/18 08:49:49;;;;;;;11.88;8.23;;;;;;;15.27;38.82;97682.25;5134929;27;20023;-26
2022/03/18 08:52:14;;;;;;;11.45;8.15;;;;;;;15.31;38.89;97682.94;5134534;27;20067;-27
2022/03/18 08:54:40;;;;;;;12.45;8.18;;;;;;;15.38;38.66;97689.00;5134856;27;20023;-29
2022/03/18 08:57:06;;;;;;;15.95;8.63;;;;;;;15.30;38.98;97684.13;5134514;27;20027;-27
2022/03/18 08:59:31;;;;;;;12.45;8.43;;;;;;;14.96;39.56;97695.47;5134606;27;20042;-27
2022/03/18 09:01:57;;;;;;;12.82;8.45;;;;;;;15.24;39.17;97694.78;5134459;27;20038;-27
2022/03/18 09:04:24;;;;;;;14.20;8.35;;;;;;;15.31;38.88;97694.63;5134048;27;20067;-26
2022/03/18 09:06:49;;;;;;;12.63;7.78;;;;;;;15.20;39.09;97694.13;5134100;27;20026;-27
2022/03/18 09:09:15;;;;;;;14.65;8.68;;;;;;;15.34;38.83;97701.97;5134247;27;20387;-27
2022/03/18 09:11:41;;;;;;;10.85;7.30;;;;;;;15.26;39.10;97703.34;5134271;27;20038;-27
2022/03/18 09:14:07;;;;;;;10.73;7.13;;;;;;;15.28;39.00;97700.94;5125297;27;20058;-26
2022/03/18 09:16:36;;;;;;;11.57;7.68;;;;;;;15.25;39.12;97709.22;5115656;28;20501;-27
2022/03/18 09:19:02;;;;;;;12.98;8.02;;;;;;;15.22;39.28;97701.88;5115995;28;20043;-26
2022/03/18 09:21:28;;;;;;;11.90;8.35;;;;;;;15.13;39.23;97712.63;5115489;28;20039;-27
2022/03/18 09:23:54;;;;;;;10.48;7.85;;;;;;;15.24;39.30;97711.19;5115551;28;20027;-26
2022/03/18 09:26:19;;;;;;;11.48;8.13;;;;;;;15.26;39.29;97708.03;5115613;28;20073;-26
2022/03/18 09:28:46;;;;;;;11.55;7.85;;;;;;;15.18;39.30;97704.69;5115533;28;20024;-26
2022/03/18 09:31:12;;;;;;;13.18;7.63;;;;;;;15.21;39.29;97720.22;5115403;28;20517;-26
2022/03/18 09:33:37;;;;;;;12.07;8.20;;;;;;;15.23;39.29;97715.09;5115654;28;20040;-27
2022/03/18 09:36:04;;;;;;;11.55;8.13;;;;;;;15.31;39.02;97715.72;5096967;28;20081;-27
2022/03/18 09:38:29;;;;;;;11.80;8.57;;;;;;;15.19;39.55;97724.59;5122350;27;20029;-27
2022/03/18 09:40:55;;;;;;;11.38;7.93;;;;;;;15.22;39.34;97724.50;5135697;27;20035;-26
2022/03/18 09:43:21;;;;;;;12.63;8.98;;;;;;;15.31;39.17;97737.59;5135690;27;20424;-27
2022/03/18 09:45:48;;;;;;;15.57;9.40;;;;;;;15.36;39.08;97728.88;5135843;27;20027;-26
2022/03/18 09:48:13;;;;;;;15.10;8.90;;;;;;;15.30;38.98;97736.06;5135552;27;20149;-26
2022/03/18 09:50:40;;;;;;;12.50;8.30;;;;;;;15.36;39.14;97743.31;5135695;27;20102;-26
2022/03/18 09:53:06;;;;;;;11.68;8.70;;;;;;;15.31;39.03;97740.34;5135492;27;20497;-26
2022/03/18 09:55:35;;;;;;;15.30;8.30;;;;;;;15.38;38.95;97743.66;5135455;27;20050;-27
2022/03/18 09:58:01;;;;;;;11.35;7.78;;;;;;;15.38;38.99;97749.13;5135591;27;20399;-26
2022/03/18 10:00:28;;;;;;;14.02;8.25;;;;;;;15.29;38.96;97751.69;5135306;27;20039;-27
2022/03/18 10:03:16;;;;;;;12.98;8.52;;;;;;;15.25;39.41;97748.25;5135354;27;20519;-26
2022/03/18 10:06:03;;;;;;;12.70;8.23;;;;;;;15.15;39.69;97748.50;5116965;27;20023;-26
2022/03/18 10:08:35;;;;;;;12.93;9.18;;;;;;;15.37;39.40;97752.28;5135341;27;20057;-27
2022/03/18 10:11:14;;;;;;;11.57;8.27;;;;;;;15.28;39.63;97752.09;5135237;27;20019;-26
2022/03/18 10:14:03;;;;;;;11.30;7.57;;;;;;;15.41;38.95;97759.22;5135330;27;20023;-26
2022/03/18 10:16:42;;;;;;;11.77;8.00;;;;;;;15.39;39.34;97750.66;5135010;27;20507;-26
2022/03/18 10:19:22;;;;;;;16.23;9.05;;;;;;;15.23;39.57;97750.63;5135416;27;20071;-26
2022/03/18 10:21:55;;;;;;;10.30;8.23;;;;;;;15.20;39.74;97764.41;5116541;27;20066;-26
2022/03/18 10:24:35;;;;;;;13.77;8.20;;;;;;;15.29;39.48;97759.88;5134909;27;20023;-27
2022/03/18 10:27:12;;;;;;;9.55;7.50;;;;;;;15.31;39.33;97760.22;5134267;27;20031;-26
2022/03/18 10:29:43;;;;;;;11.07;8.10;;;;;;;15.39;39.05;97767.06;5116591;27;20030;-27
2022/03/18 10:32:10;;;;;;;10.98;8.25;;;;;;;15.40;38.94;97765.88;5134903;27;20023;-26
2022/03/18 10:37:22;;;;;;;11.13;7.60;;;;;;;15.15;39.82;97768.41;5134882;27;20038;-26
2022/03/18 10:39:51;;;;;;;12.35;8.07;;;;;;;15.11;39.89;97767.69;5134641;27;20102;-27
2022/03/18 10:42:20;;;;;;;10.45;7.75;;;;;;;15.15;39.56;97773.09;5134585;27;20409;-27
2022/03/18 10:44:52;;;;;;;10.18;7.25;;;;;;;15.36;39.33;97775.34;5134591;27;20030;-27
2022/03/18 10:47:40;;;;;;;13.67;8.10;;;;;;;15.31;39.47;97773.13;5134714;27;20475;-27
2022/03/18 10:50:11;;;;;;;12.65;8.13;;;;;;;15.32;39.32;97769.97;5134692;27;20523;-27
2022/03/18 10:53:00;;;;;;;12.98;7.97;;;;;;;15.27;39.41;97770.47;5134519;27;20023;-27
2022/03/18 10:55:26;;;;;;;13.18;8.55;;;;;;;15.24;39.33;97771.31;5134505;27;20027;-26
2022/03/18 10:57:53;;;;;;;20.48;11.73;;;;;;;15.22;39.15;97773.69;5134525;27;20034;-26
2022/03/18 11:00:20;;;;;;;14.05;9.15;;;;;;;15.11;39.45;97770.44;5134150;27;20043;-27
2022/03/18 11:02:51;;;;;;;13.10;8.18;;;;;;;15.27;39.48;97775.94;5134535;27;20049;-26
2022/03/18 11:05:21;;;;;;;14.00;9.93;;;;;;;15.46;38.81;97768.84;5134214;27;20076;-26
2022/03/18 11:07:47;;;;;;;12.45;8.32;;;;;;;15.22;39.24;97767.44;5134366;27;20015;-26
2022/03/18 11:13:02;;;;;;;12.13;8.73;;;;;;;15.36;39.15;97767.91;5125525;27;20034;-27
2022/03/18 11:15:29;;;;;;;15.65;10.55;;;;;;;15.35;39.10;97763.63;5111612;28;20055;-26
2022/03/18 11:17:56;;;;;;;12.13;9.10;;;;;;;15.39;39.39;97767.06;5113117;28;20032;-27
2022/03/18 11:20:25;;;;;;;17.85;10.88;;;;;;;15.29;39.27;97762.63;5113759;28;20062;-26
2022/03/18 11:22:51;;;;;;;15.63;9.60;;;;;;;15.37;38.97;97761.25;5113825;28;20031;-26
2022/03/18 11:25:18;;;;;;;14.15;8.95;;;;;;;15.40;39.15;97763.13;5113595;28;20034;-27
2022/03/18 11:27:45;;;;;;;16.23;9.32;;;;;;;15.37;39.21;97753.06;5113532;28;20035;-27
2022/03/18 11:30:21;;;;;;;12.15;8.43;;;;;;;15.41;39.48;97758.44;5113651;28;20094;-27
2022/03/18 11:33:17;;;;;;;15.15;9.43;;;;;;;15.42;39.39;97743.59;5113465;28;20036;-26
2022/03/18 11:35:52;;;;;;;14.18;9.80;;;;;;;15.39;39.70;97749.91;5092345;28;20032;-28
2022/03/18 11:38:38;;;;;;;13.25;8.77;;;;;;;15.33;38.84;97744.16;5116772;28;20464;-27
2022/03/18 11:41:05;;;;;;;13.35;9.55;;;;;;;15.16;39.47;97750.81;5116421;28;20077;-27
2022/03/18 11:43:39;;;;;;;14.55;8.68;;;;;;;15.16;39.38;97742.63;5117492;28;20388;-27
2022/03/18 11:46:13;;;;;;;13.88;9.23;;;;;;;15.35;39.60;97743.72;5117698;28;20075;-28
2022/03/18 11:48:55;;;;;;;15.48;9.50;;;;;;;15.48;39.44;97746.56;5117253;28;20029;-28
2022/03/18 11:51:33;;;;;;;15.68;9.05;;;;;;;15.44;39.35;97735.72;5117437;28;20072;-27